sensor_id;sensor_type;location;lat;lon;timestamp;pressure;altitude;pressure_sealevel;temperature;humidity
18755;BME280;35061;47.664;9.166;2023-12-20T00:01:17;101828.56;;;4.47;89.12
18755;BME280;35061;47.664;9.166;2023-12-20T00:03:45;101822.48;;;4.49;89.37
18755;BME280;35061;47.664;9.166;2023-12-20T00:06:13;101821.24;;;4.50;89.25
18755;BME280;35061;47.664;9.166;2023-12-20T00:08:41;101812.73;;;4.50;89.34
18755;BME280;35061;47.664;9.166;2023-12-20T00:11:09;101809.08;;;4.50;89.14
18755;BME280;35061;47.664;9.166;2023-12-20T00:13:37;101809.08;;;4.50;89.28
18755;BME280;35061;47.664;9.166;2023-12-20T00:16:05;101815.95;;;4.52;89.46
18755;BME280;35061;47.664;9.166;2023-12-20T00:18:33;101811.49;;;4.51;88.90
18755;BME280;35061;47.664;9.166;2023-12-20T00:21:02;101807.84;;;4.51;88.51
18755;BME280;35061;47.664;9.166;2023-12-20T00:23:30;101791.22;;;4.53;88.92
18755;BME280;35061;47.664;9.166;2023-12-20T00:25:58;101783.08;;;4.55;88.28
18755;BME280;35061;47.664;9.166;2023-12-20T00:28:26;101768.85;;;4.58;88.26
18755;BME280;35061;47.664;9.166;2023-12-20T00:30:54;101772.06;;;4.60;88.25
18755;BME280;35061;47.664;9.166;2023-12-20T00:33:22;101767.97;;;4.61;87.86
18755;BME280;35061;47.664;9.166;2023-12-20T00:35:50;101778.47;;;4.65;87.04
18755;BME280;35061;47.664;9.166;2023-12-20T00:38:18;101773.17;;;4.67;87.31
18755;BME280;35061;47.664;9.166;2023-12-20T00:40:46;101775.20;;;4.66;86.25
18755;BME280;35061;47.664;9.166;2023-12-20T00:43:14;101779.61;;;4.71;86.86
18755;BME280;35061;47.664;9.166;2023-12-20T00:45:42;101778.37;;;4.72;85.44
18755;BME280;35061;47.664;9.166;2023-12-20T00:48:10;101765.35;;;4.74;85.30
18755;BME280;35061;47.664;9.166;2023-12-20T00:50:38;101763.30;;;4.75;84.46
18755;BME280;35061;47.664;9.166;2023-12-20T00:53:06;101739.75;;;4.78;84.66
18755;BME280;35061;47.664;9.166;2023-12-20T00:55:34;101736.94;;;4.78;84.45
18755;BME280;35061;47.664;9.166;2023-12-20T00:58:02;101735.24;;;4.81;84.98
18755;BME280;35061;47.664;9.166;2023-12-20T01:00:30;101720.26;;;4.80;83.59
18755;BME280;35061;47.664;9.166;2023-12-20T01:02:58;101728.73;;;4.84;84.49
18755;BME280;35061;47.664;9.166;2023-12-20T01:05:26;101727.91;;;4.83;82.95
18755;BME280;35061;47.664;9.166;2023-12-20T01:07:54;101721.34;;;4.86;82.09
18755;BME280;35061;47.664;9.166;2023-12-20T01:10:22;101723.37;;;4.89;83.25
18755;BME280;35061;47.664;9.166;2023-12-20T01:12:50;101725.33;;;4.93;83.55
18755;BME280;35061;47.664;9.166;2023-12-20T01:15:18;101719.22;;;4.94;82.92
18755;BME280;35061;47.664;9.166;2023-12-20T01:17:46;101720.00;;;4.95;83.07
18755;BME280;35061;47.664;9.166;2023-12-20T01:20:15;101724.91;;;4.94;81.47
18755;BME280;35061;47.664;9.166;2023-12-20T01:22:43;101722.48;;;4.93;80.99
18755;BME280;35061;47.664;9.166;2023-12-20T01:25:13;101728.11;;;4.96;81.77
18755;BME280;35061;47.664;9.166;2023-12-20T01:27:42;101735.80;;;4.96;80.43
18755;BME280;35061;47.664;9.166;2023-12-20T01:30:11;101732.55;;;4.97;80.86
18755;BME280;35061;47.664;9.166;2023-12-20T01:32:39;101727.65;;;4.98;79.32
18755;BME280;35061;47.664;9.166;2023-12-20T01:35:07;101724.02;;;4.97;78.38
18755;BME280;35061;47.664;9.166;2023-12-20T01:37:35;101721.54;;;4.99;79.83
18755;BME280;35061;47.664;9.166;2023-12-20T01:40:04;101721.96;;;4.98;78.06
18755;BME280;35061;47.664;9.166;2023-12-20T01:42:32;101723.53;;;5.02;79.14
18755;BME280;35061;47.664;9.166;2023-12-20T01:45:00;101739.33;;;5.03;77.62
18755;BME280;35061;47.664;9.166;2023-12-20T01:47:28;101734.45;;;5.04;77.99
18755;BME280;35061;47.664;9.166;2023-12-20T01:49:56;101744.16;;;5.07;77.98
18755;BME280;35061;47.664;9.166;2023-12-20T01:52:25;101736.77;;;5.09;76.49
18755;BME280;35061;47.664;9.166;2023-12-20T01:54:54;101736.35;;;5.11;76.31
18755;BME280;35061;47.664;9.166;2023-12-20T01:57:28;101737.89;;;5.15;76.61
18755;BME280;35061;47.664;9.166;2023-12-20T01:59:56;101723.27;;;5.17;76.21
18755;BME280;35061;47.664;9.166;2023-12-20T02:02:27;101729.68;;;5.21;77.32
18755;BME280;35061;47.664;9.166;2023-12-20T02:04:56;101717.09;;;5.22;76.78
18755;BME280;35061;47.664;9.166;2023-12-20T02:07:24;101734.48;;;5.24;76.81
18755;BME280;35061;47.664;9.166;2023-12-20T02:09:52;101725.13;;;5.27;77.55
18755;BME280;35061;47.664;9.166;2023-12-20T02:12:21;101729.13;;;5.30;77.26
18755;BME280;35061;47.664;9.166;2023-12-20T02:14:49;101725.49;;;5.29;76.58
18755;BME280;35061;47.664;9.166;2023-12-20T02:17:17;101726.73;;;5.28;75.36
18755;BME280;35061;47.664;9.166;2023-12-20T02:19:45;101727.09;;;5.30;76.38
18755;BME280;35061;47.664;9.166;2023-12-20T02:22:14;101730.66;;;5.35;77.07
18755;BME280;35061;47.664;9.166;2023-12-20T02:24:42;101733.15;;;5.33;76.54
18755;BME280;35061;47.664;9.166;2023-12-20T02:27:10;101712.05;;;5.30;76.21
18755;BME280;35061;47.664;9.166;2023-12-20T02:29:38;101715.72;;;5.30;76.82
18755;BME280;35061;47.664;9.166;2023-12-20T02:32:06;101713.30;;;5.29;77.38
18755;BME280;35061;47.664;9.166;2023-12-20T02:34:34;101702.90;;;5.22;78.01
18755;BME280;35061;47.664;9.166;2023-12-20T02:37:02;101717.45;;;5.24;78.82
18755;BME280;35061;47.664;9.166;2023-12-20T02:39:30;101715.91;;;5.20;79.19
18755;BME280;35061;47.664;9.166;2023-12-20T02:41:58;101719.25;;;5.14;79.86
18755;BME280;35061;47.664;9.166;2023-12-20T02:44:26;101724.64;;;5.09;80.59
18755;BME280;35061;47.664;9.166;2023-12-20T02:46:54;101709.27;;;5.06;81.17
18755;BME280;35061;47.664;9.166;2023-12-20T02:49:22;101704.04;;;5.05;81.53
18755;BME280;35061;47.664;9.166;2023-12-20T02:51:50;101709.27;;;5.06;82.01
18755;BME280;35061;47.664;9.166;2023-12-20T02:54:18;101700.31;;;5.08;81.88
18755;BME280;35061;47.664;9.166;2023-12-20T02:56:46;101710.45;;;5.09;82.08
18755;BME280;35061;47.664;9.166;2023-12-20T02:59:14;101708.39;;;5.09;82.03
18755;BME280;35061;47.664;9.166;2023-12-20T03:01:45;101719.67;;;5.13;81.96
18755;BME280;35061;47.664;9.166;2023-12-20T03:04:13;101718.40;;;5.17;82.13
18755;BME280;35061;47.664;9.166;2023-12-20T03:06:41;101713.52;;;5.18;81.42
18755;BME280;35061;47.664;9.166;2023-12-20T03:09:09;101725.66;;;5.19;81.40
18755;BME280;35061;47.664;9.166;2023-12-20T03:11:37;101718.86;;;5.16;80.66
18755;BME280;35061;47.664;9.166;2023-12-20T03:14:05;101722.09;;;5.14;80.45
18755;BME280;35061;47.664;9.166;2023-12-20T03:16:33;101722.45;;;5.16;81.21
18755;BME280;35061;47.664;9.166;2023-12-20T03:19:04;101722.88;;;5.15;80.75
18755;BME280;35061;47.664;9.166;2023-12-20T03:21:32;101731.51;;;5.11;80.71
18755;BME280;35061;47.664;9.166;2023-12-20T03:23:59;101722.98;;;5.11;81.42
18755;BME280;35061;47.664;9.166;2023-12-20T03:26:27;101719.25;;;5.14;81.73
18755;BME280;35061;47.664;9.166;2023-12-20T03:28:55;101722.03;;;5.18;82.04
18755;BME280;35061;47.664;9.166;2023-12-20T03:31:23;101713.88;;;5.20;82.34
18755;BME280;35061;47.664;9.166;2023-12-20T03:33:51;101713.88;;;5.20;82.73
18755;BME280;35061;47.664;9.166;2023-12-20T03:36:21;101713.16;;;5.16;83.18
18755;BME280;35061;47.664;9.166;2023-12-20T03:38:49;101723.76;;;5.12;85.19
18755;BME280;35061;47.664;9.166;2023-12-20T03:41:17;101718.07;;;5.12;84.90
18755;BME280;35061;47.664;9.166;2023-12-20T03:43:45;101725.07;;;5.07;86.91
18755;BME280;35061;47.664;9.166;2023-12-20T03:46:13;101729.19;;;5.02;87.99
18755;BME280;35061;47.664;9.166;2023-12-20T03:48:41;101721.60;;;4.96;88.90
18755;BME280;35061;47.664;9.166;2023-12-20T03:51:09;101727.29;;;4.96;88.77
18755;BME280;35061;47.664;9.166;2023-12-20T03:53:37;101731.48;;;4.87;89.80
18755;BME280;35061;47.664;9.166;2023-12-20T03:56:05;101734.09;;;4.78;93.85
18755;BME280;35061;47.664;9.166;2023-12-20T03:58:33;101739.88;;;4.71;95.27
18755;BME280;35061;47.664;9.166;2023-12-20T04:01:02;101750.45;;;4.67;94.32
18755;BME280;35061;47.664;9.166;2023-12-20T04:03:30;101753.78;;;4.61;94.29
18755;BME280;35061;47.664;9.166;2023-12-20T04:05:58;101751.82;;;4.58;95.44
18755;BME280;35061;47.664;9.166;2023-12-20T04:08:26;101740.99;;;4.50;98.66
18755;BME280;35061;47.664;9.166;2023-12-20T04:10:54;101749.13;;;4.47;98.58
18755;BME280;35061;47.664;9.166;2023-12-20T04:13:22;101754.86;;;4.44;99.38
18755;BME280;35061;47.664;9.166;2023-12-20T04:15:50;101754.99;;;4.37;100.00
18755;BME280;35061;47.664;9.166;2023-12-20T04:18:19;101759.05;;;4.36;99.60
18755;BME280;35061;47.664;9.166;2023-12-20T04:20:47;101752.24;;;4.29;100.00
18755;BME280;35061;47.664;9.166;2023-12-20T04:23:15;101762.02;;;4.25;100.00
18755;BME280;35061;47.664;9.166;2023-12-20T04:25:43;101765.72;;;4.22;100.00
18755;BME280;35061;47.664;9.166;2023-12-20T04:28:11;101765.39;;;4.16;100.00
18755;BME280;35061;47.664;9.166;2023-12-20T04:30:39;101759.44;;;4.07;100.00
18755;BME280;35061;47.664;9.166;2023-12-20T04:33:07;101775.66;;;4.02;100.00
18755;BME280;35061;47.664;9.166;2023-12-20T04:35:37;101772.45;;;4.00;100.00
18755;BME280;35061;47.664;9.166;2023-12-20T04:38:05;101775.75;;;3.95;100.00
18755;BME280;35061;47.664;9.166;2023-12-20T04:40:33;101781.05;;;3.93;100.00
18755;BME280;35061;47.664;9.166;2023-12-20T04:43:01;101785.11;;;3.92;100.00
18755;BME280;35061;47.664;9.166;2023-12-20T04:45:29;101791.62;;;3.89;100.00
18755;BME280;35061;47.664;9.166;2023-12-20T04:47:57;101787.98;;;3.88;100.00
18755;BME280;35061;47.664;9.166;2023-12-20T04:50:25;101787.59;;;3.86;100.00
18755;BME280;35061;47.664;9.166;2023-12-20T04:52:54;101790.86;;;3.85;100.00
18755;BME280;35061;47.664;9.166;2023-12-20T04:55:22;101794.95;;;3.84;100.00
18755;BME280;35061;47.664;9.166;2023-12-20T04:57:50;101801.39;;;3.84;100.00
18755;BME280;35061;47.664;9.166;2023-12-20T05:00:18;101792.10;;;3.84;100.00
18755;BME280;35061;47.664;9.166;2023-12-20T05:02:46;101790.08;;;3.81;100.00
18755;BME280;35061;47.664;9.166;2023-12-20T05:05:14;101788.08;;;3.81;100.00
18755;BME280;35061;47.664;9.166;2023-12-20T05:07:43;101798.22;;;3.79;100.00
18755;BME280;35061;47.664;9.166;2023-12-20T05:10:11;101800.64;;;3.80;100.00
18755;BME280;35061;47.664;9.166;2023-12-20T05:12:40;101802.66;;;3.80;100.00
18755;BME280;35061;47.664;9.166;2023-12-20T05:15:08;101795.38;;;3.79;100.00
18755;BME280;35061;47.664;9.166;2023-12-20T05:17:36;101805.09;;;3.81;100.00
18755;BME280;35061;47.664;9.166;2023-12-20T05:20:04;101815.19;;;3.82;100.00
18755;BME280;35061;47.664;9.166;2023-12-20T05:22:32;101806.69;;;3.82;100.00
18755;BME280;35061;47.664;9.166;2023-12-20T05:25:00;101811.49;;;3.85;100.00
18755;BME280;35061;47.664;9.166;2023-12-20T05:27:28;101805.45;;;3.83;100.00
18755;BME280;35061;47.664;9.166;2023-12-20T05:29:56;101816.76;;;3.87;100.00
18755;BME280;35061;47.664;9.166;2023-12-20T05:32:25;101821.20;;;3.88;100.00
18755;BME280;35061;47.664;9.166;2023-12-20T05:34:53;101821.20;;;3.88;100.00
18755;BME280;35061;47.664;9.166;2023-12-20T05:37:21;101826.02;;;3.91;100.00
18755;BME280;35061;47.664;9.166;2023-12-20T05:39:49;101817.94;;;3.89;100.00
18755;BME280;35061;47.664;9.166;2023-12-20T05:42:17;101825.59;;;3.93;100.00
18755;BME280;35061;47.664;9.166;2023-12-20T05:44:45;101835.70;;;3.94;100.00
18755;BME280;35061;47.664;9.166;2023-12-20T05:47:15;101846.65;;;3.95;100.00
18755;BME280;35061;47.664;9.166;2023-12-20T05:49:44;101843.80;;;3.95;100.00
18755;BME280;35061;47.664;9.166;2023-12-20T05:52:12;101845.41;;;3.96;100.00
18755;BME280;35061;47.664;9.166;2023-12-20T05:54:42;101849.03;;;3.97;100.00
18755;BME280;35061;47.664;9.166;2023-12-20T05:57:10;101839.72;;;4.00;100.00
18755;BME280;35061;47.664;9.166;2023-12-20T05:59:38;101827.55;;;3.99;100.00
18755;BME280;35061;47.664;9.166;2023-12-20T06:02:09;101836.41;;;4.01;100.00
18755;BME280;35061;47.664;9.166;2023-12-20T06:04:37;101838.84;;;4.03;100.00
18755;BME280;35061;47.664;9.166;2023-12-20T06:07:05;101840.08;;;4.02;100.00
18755;BME280;35061;47.664;9.166;2023-12-20T06:09:33;101845.70;;;4.05;100.00
18755;BME280;35061;47.664;9.166;2023-12-20T06:12:01;101840.40;;;4.08;100.00
18755;BME280;35061;47.664;9.166;2023-12-20T06:14:29;101833.50;;;4.09;100.00
18755;BME280;35061;47.664;9.166;2023-12-20T06:16:58;101820.16;;;4.09;100.00
18755;BME280;35061;47.664;9.166;2023-12-20T06:19:26;101828.59;;;4.13;100.00
18755;BME280;35061;47.664;9.166;2023-12-20T06:21:54;101836.28;;;4.16;100.00
18755;BME280;35061;47.664;9.166;2023-12-20T06:24:23;101835.40;;;4.19;100.00
18755;BME280;35061;47.664;9.166;2023-12-20T06:26:58;101845.54;;;4.20;100.00
18755;BME280;35061;47.664;9.166;2023-12-20T06:29:26;101857.24;;;4.22;100.00
18755;BME280;35061;47.664;9.166;2023-12-20T06:31:54;101858.84;;;4.23;100.00
18755;BME280;35061;47.664;9.166;2023-12-20T06:34:22;101875.42;;;4.28;100.00
18755;BME280;35061;47.664;9.166;2023-12-20T06:36:50;101869.31;;;4.30;100.00
18755;BME280;35061;47.664;9.166;2023-12-20T06:39:18;101861.20;;;4.32;100.00
18755;BME280;35061;47.664;9.166;2023-12-20T06:41:47;101868.85;;;4.35;100.00
18755;BME280;35061;47.664;9.166;2023-12-20T06:44:14;101881.37;;;4.38;100.00
18755;BME280;35061;47.664;9.166;2023-12-20T06:46:43;101874.87;;;4.41;100.00
18755;BME280;35061;47.664;9.166;2023-12-20T06:49:11;101885.79;;;4.42;100.00
18755;BME280;35061;47.664;9.166;2023-12-20T06:51:40;101879.25;;;4.45;100.00
18755;BME280;35061;47.664;9.166;2023-12-20T06:54:08;101887.72;;;4.49;100.00
18755;BME280;35061;47.664;9.166;2023-12-20T06:56:35;101891.31;;;4.53;100.00
18755;BME280;35061;47.664;9.166;2023-12-20T06:59:03;101890.07;;;4.54;100.00
18755;BME280;35061;47.664;9.166;2023-12-20T07:01:32;101888.83;;;4.55;100.00
18755;BME280;35061;47.664;9.166;2023-12-20T07:04:00;101893.70;;;4.58;100.00
18755;BME280;35061;47.664;9.166;2023-12-20T07:06:28;101897.70;;;4.61;100.00
18755;BME280;35061;47.664;9.166;2023-12-20T07:08:56;101903.77;;;4.63;100.00
18755;BME280;35061;47.664;9.166;2023-12-20T07:11:24;101893.21;;;4.64;100.00
18755;BME280;35061;47.664;9.166;2023-12-20T07:13:52;101907.77;;;4.66;100.00
18755;BME280;35061;47.664;9.166;2023-12-20T07:16:20;101907.34;;;4.67;100.00
18755;BME280;35061;47.664;9.166;2023-12-20T07:18:49;101909.76;;;4.69;100.00
18755;BME280;35061;47.664;9.166;2023-12-20T07:21:17;101891.94;;;4.68;100.00
18755;BME280;35061;47.664;9.166;2023-12-20T07:23:45;101901.62;;;4.71;100.00
18755;BME280;35061;47.664;9.166;2023-12-20T07:26:13;101895.60;;;4.69;100.00
18755;BME280;35061;47.664;9.166;2023-12-20T07:28:42;101897.20;;;4.70;100.00
18755;BME280;35061;47.664;9.166;2023-12-20T07:31:10;101905.34;;;4.68;100.00
18755;BME280;35061;47.664;9.166;2023-12-20T07:33:38;101914.99;;;4.70;100.00
18755;BME280;35061;47.664;9.166;2023-12-20T07:36:06;101912.96;;;5.02;100.00
18755;BME280;35061;47.664;9.166;2023-12-20T07:38:35;101904.27;;;5.13;100.00
18755;BME280;35061;47.664;9.166;2023-12-20T07:41:03;101905.05;;;5.17;100.00
18755;BME280;35061;47.664;9.166;2023-12-20T07:43:31;101906.66;;;5.18;100.00
18755;BME280;35061;47.664;9.166;2023-12-20T07:46:04;101913.12;;;5.19;100.00
18755;BME280;35061;47.664;9.166;2023-12-20T07:48:34;101927.32;;;5.19;100.00
18755;BME280;35061;47.664;9.166;2023-12-20T07:51:03;101928.13;;;5.19;100.00
18755;BME280;35061;47.664;9.166;2023-12-20T07:53:31;101930.98;;;5.19;100.00
18755;BME280;35061;47.664;9.166;2023-12-20T07:55:59;101931.34;;;5.21;100.00
18755;BME280;35061;47.664;9.166;2023-12-20T07:58:27;101921.20;;;5.20;100.00
18755;BME280;35061;47.664;9.166;2023-12-20T08:01:16;101917.58;;;5.20;100.00
18755;BME280;35061;47.664;9.166;2023-12-20T08:03:44;101924.48;;;5.19;100.00
18755;BME280;35061;47.664;9.166;2023-12-20T08:06:12;101911.10;;;5.19;100.00
18755;BME280;35061;47.664;9.166;2023-12-20T08:08:40;101920.81;;;5.22;100.00
18755;BME280;35061;47.664;9.166;2023-12-20T08:11:10;101933.40;;;5.21;100.00
18755;BME280;35061;47.664;9.166;2023-12-20T08:13:38;101933.76;;;5.23;100.00
18755;BME280;35061;47.664;9.166;2023-12-20T08:16:06;101925.62;;;5.25;100.00
18755;BME280;35061;47.664;9.166;2023-12-20T08:18:34;101940.17;;;5.27;100.00
18755;BME280;35061;47.664;9.166;2023-12-20T08:21:03;101941.77;;;5.28;100.00
18755;BME280;35061;47.664;9.166;2023-12-20T08:23:31;101930.79;;;5.30;100.00
18755;BME280;35061;47.664;9.166;2023-12-20T08:26:11;101932.81;;;5.33;100.00
18755;BME280;35061;47.664;9.166;2023-12-20T08:28:40;101936.80;;;5.36;100.00
18755;BME280;35061;47.664;9.166;2023-12-20T08:31:13;101939.22;;;5.37;100.00
18755;BME280;35061;47.664;9.166;2023-12-20T08:33:46;101943.67;;;5.38;100.00
18755;BME280;35061;47.664;9.166;2023-12-20T08:36:14;101950.11;;;5.42;100.00
18755;BME280;35061;47.664;9.166;2023-12-20T08:38:42;101954.49;;;5.47;100.00
18755;BME280;35061;47.664;9.166;2023-12-20T08:41:10;101948.73;;;5.51;100.00
18755;BME280;35061;47.664;9.166;2023-12-20T08:43:39;101953.52;;;5.57;100.00
18755;BME280;35061;47.664;9.166;2023-12-20T08:46:10;101944.98;;;5.57;100.00
18755;BME280;35061;47.664;9.166;2023-12-20T08:48:38;101951.06;;;5.59;100.00
18755;BME280;35061;47.664;9.166;2023-12-20T08:51:07;101945.30;;;5.63;100.00
18755;BME280;35061;47.664;9.166;2023-12-20T08:53:36;101956.20;;;5.68;100.00
18755;BME280;35061;47.664;9.166;2023-12-20T08:56:04;101958.16;;;5.71;100.00
18755;BME280;35061;47.664;9.166;2023-12-20T08:58:32;101952.47;;;5.71;100.00
18755;BME280;35061;47.664;9.166;2023-12-20T09:01:01;101959.34;;;5.74;100.00
18755;BME280;35061;47.664;9.166;2023-12-20T09:03:29;101948.70;;;5.78;100.00
18755;BME280;35061;47.664;9.166;2023-12-20T09:05:57;101942.16;;;5.81;100.00
18755;BME280;35061;47.664;9.166;2023-12-20T09:08:25;101944.20;;;5.81;100.00
18755;BME280;35061;47.664;9.166;2023-12-20T09:10:53;101952.66;;;5.84;100.00
18755;BME280;35061;47.664;9.166;2023-12-20T09:13:21;101945.30;;;5.87;100.00
18755;BME280;35061;47.664;9.166;2023-12-20T09:15:57;101956.23;;;5.89;100.00
18755;BME280;35061;47.664;9.166;2023-12-20T09:18:25;101952.95;;;5.90;100.00
18755;BME280;35061;47.664;9.166;2023-12-20T09:20:54;101954.16;;;5.93;100.00
18755;BME280;35061;47.664;9.166;2023-12-20T09:23:22;101944.39;;;5.94;100.00
18755;BME280;35061;47.664;9.166;2023-12-20T09:25:50;101946.88;;;5.92;100.00
18755;BME280;35061;47.664;9.166;2023-12-20T09:28:23;101954.16;;;5.93;100.00
18755;BME280;35061;47.664;9.166;2023-12-20T09:30:50;101949.66;;;5.95;100.00
18755;BME280;35061;47.664;9.166;2023-12-20T09:33:19;101952.86;;;5.97;100.00
18755;BME280;35061;47.664;9.166;2023-12-20T09:35:47;101946.28;;;6.00;100.00
18755;BME280;35061;47.664;9.166;2023-12-20T09:38:15;101959.17;;;6.09;100.00
18755;BME280;35061;47.664;9.166;2023-12-20T09:40:45;101954.59;;;6.15;100.00
18755;BME280;35061;47.664;9.166;2023-12-20T09:43:18;101965.48;;;6.20;100.00
18755;BME280;35061;47.664;9.166;2023-12-20T09:45:47;101963.42;;;6.21;100.00
18755;BME280;35061;47.664;9.166;2023-12-20T09:48:18;101973.88;;;6.27;100.00
18755;BME280;35061;47.664;9.166;2023-12-20T09:50:47;101975.91;;;6.27;100.00
18755;BME280;35061;47.664;9.166;2023-12-20T09:53:19;101970.65;;;6.25;100.00
18755;BME280;35061;47.664;9.166;2023-12-20T09:55:47;101974.31;;;6.26;100.00
18755;BME280;35061;47.664;9.166;2023-12-20T09:58:15;101969.41;;;6.26;100.00
18755;BME280;35061;47.664;9.166;2023-12-20T10:00:43;101966.20;;;6.24;100.00
18755;BME280;35061;47.664;9.166;2023-12-20T10:03:13;101959.37;;;6.22;100.00
18755;BME280;35061;47.664;9.166;2023-12-20T10:05:46;101962.27;;;6.18;100.00
18755;BME280;35061;47.664;9.166;2023-12-20T10:08:17;101960.58;;;6.21;100.00
18755;BME280;35061;47.664;9.166;2023-12-20T10:10:45;101956.88;;;6.24;100.00
18755;BME280;35061;47.664;9.166;2023-12-20T10:13:15;101946.28;;;6.24;100.00
18755;BME280;35061;47.664;9.166;2023-12-20T10:15:43;101947.82;;;6.29;100.00
18755;BME280;35061;47.664;9.166;2023-12-20T10:18:12;101940.04;;;6.33;100.00
18755;BME280;35061;47.664;9.166;2023-12-20T10:20:41;101934.25;;;6.37;100.00
18755;BME280;35061;47.664;9.166;2023-12-20T10:23:10;101919.96;;;6.40;100.00
18755;BME280;35061;47.664;9.166;2023-12-20T10:25:39;101926.77;;;6.47;100.00
18755;BME280;35061;47.664;9.166;2023-12-20T10:28:14;101910.41;;;6.51;100.00
18755;BME280;35061;47.664;9.166;2023-12-20T10:30:43;101911.59;;;6.53;100.00
18755;BME280;35061;47.664;9.166;2023-12-20T10:33:11;101904.20;;;6.56;100.00
18755;BME280;35061;47.664;9.166;2023-12-20T10:35:40;101898.58;;;6.52;100.00
18755;BME280;35061;47.664;9.166;2023-12-20T10:38:14;101901.29;;;6.60;100.00
18755;BME280;35061;47.664;9.166;2023-12-20T10:40:45;101892.59;;;6.67;100.00
18755;BME280;35061;47.664;9.166;2023-12-20T10:43:14;101900.70;;;6.68;100.00
18755;BME280;35061;47.664;9.166;2023-12-20T10:45:43;101895.70;;;6.73;100.00
18755;BME280;35061;47.664;9.166;2023-12-20T10:48:11;101903.38;;;6.76;100.00
18755;BME280;35061;47.664;9.166;2023-12-20T10:50:40;101890.95;;;6.86;100.00
18755;BME280;35061;47.664;9.166;2023-12-20T10:53:09;101885.82;;;6.97;100.00
18755;BME280;35061;47.664;9.166;2023-12-20T10:55:37;101879.45;;;7.10;100.00
18755;BME280;35061;47.664;9.166;2023-12-20T10:58:07;101878.10;;;7.15;100.00
18755;BME280;35061;47.664;9.166;2023-12-20T11:00:39;101875.26;;;7.15;100.00
18755;BME280;35061;47.664;9.166;2023-12-20T11:03:09;101879.35;;;7.14;100.00
18755;BME280;35061;47.664;9.166;2023-12-20T11:08:40;101877.55;;;7.20;100.00
18755;BME280;35061;47.664;9.166;2023-12-20T11:14:06;101873.30;;;7.28;100.00
18755;BME280;35061;47.664;9.166;2023-12-20T11:16:41;101872.38;;;7.31;100.00
18755;BME280;35061;47.664;9.166;2023-12-20T11:19:20;101865.09;;;7.30;100.00
18755;BME280;35061;47.664;9.166;2023-12-20T11:21:48;101865.09;;;7.30;100.00
18755;BME280;35061;47.664;9.166;2023-12-20T11:24:21;101851.75;;;7.27;99.61
18755;BME280;35061;47.664;9.166;2023-12-20T11:26:50;101853.91;;;7.23;98.04
18755;BME280;35061;47.664;9.166;2023-12-20T11:29:33;101849.72;;;7.28;99.70
18755;BME280;35061;47.664;9.166;2023-12-20T11:32:03;101842.76;;;7.29;96.60
18755;BME280;35061;47.664;9.166;2023-12-20T11:34:33;101848.09;;;7.43;97.20
18755;BME280;35061;47.664;9.166;2023-12-20T11:37:02;101846.68;;;7.51;94.26
18755;BME280;35061;47.664;9.166;2023-12-20T11:39:31;101855.74;;;7.63;97.66
18755;BME280;35061;47.664;9.166;2023-12-20T11:42:04;101844.03;;;7.74;96.76
18755;BME280;35061;47.664;9.166;2023-12-20T11:44:34;101856.95;;;7.78;96.96
18755;BME280;35061;47.664;9.166;2023-12-20T11:47:02;101858.35;;;7.87;97.29
18755;BME280;35061;47.664;9.166;2023-12-20T11:49:30;101854.17;;;7.91;98.12
18755;BME280;35061;47.664;9.166;2023-12-20T11:51:58;101849.52;;;7.98;97.15
18755;BME280;35061;47.664;9.166;2023-12-20T11:54:30;101854.34;;;8.01;97.19
18755;BME280;35061;47.664;9.166;2023-12-20T11:56:58;101856.06;;;8.11;97.55
18755;BME280;35061;47.664;9.166;2023-12-20T11:59:26;101851.06;;;8.15;98.02
18755;BME280;35061;47.664;9.166;2023-12-20T12:01:54;101857.83;;;8.21;97.87
18755;BME280;35061;47.664;9.166;2023-12-20T12:04:28;101856.00;;;8.28;97.94
18755;BME280;35061;47.664;9.166;2023-12-20T12:06:56;101854.40;;;8.27;97.24
18755;BME280;35061;47.664;9.166;2023-12-20T12:09:24;101850.28;;;8.28;94.50
18755;BME280;35061;47.664;9.166;2023-12-20T12:11:52;101852.37;;;8.27;94.99
18755;BME280;35061;47.664;9.166;2023-12-20T12:14:20;101850.67;;;8.30;95.28
18755;BME280;35061;47.664;9.166;2023-12-20T12:16:48;101842.43;;;8.32;93.18
18755;BME280;35061;47.664;9.166;2023-12-20T12:19:22;101845.83;;;8.27;91.89
18755;BME280;35061;47.664;9.166;2023-12-20T12:22:03;101849.46;;;8.14;89.69
18755;BME280;35061;47.664;9.166;2023-12-20T12:24:32;101845.57;;;8.08;90.72
18755;BME280;35061;47.664;9.166;2023-12-20T12:27:00;101846.26;;;8.12;92.12
18755;BME280;35061;47.664;9.166;2023-12-20T12:29:28;101848.19;;;8.15;90.06
18755;BME280;35061;47.664;9.166;2023-12-20T12:32:02;101846.26;;;8.12;91.08
18755;BME280;35061;47.664;9.166;2023-12-20T12:34:36;101841.80;;;8.11;91.62
18755;BME280;35061;47.664;9.166;2023-12-20T12:37:11;101844.06;;;8.03;90.92
18755;BME280;35061;47.664;9.166;2023-12-20T12:39:40;101840.60;;;7.95;91.63
18755;BME280;35061;47.664;9.166;2023-12-20T12:42:08;101844.52;;;7.85;91.82
18755;BME280;35061;47.664;9.166;2023-12-20T12:44:36;101840.04;;;7.71;91.36
18755;BME280;35061;47.664;9.166;2023-12-20T12:47:04;101847.43;;;7.68;92.02
18755;BME280;35061;47.664;9.166;2023-12-20T12:49:33;101848.45;;;7.62;91.91
18755;BME280;35061;47.664;9.166;2023-12-20T12:52:01;101843.90;;;7.48;90.60
18755;BME280;35061;47.664;9.166;2023-12-20T12:54:30;101839.45;;;7.47;91.59
18755;BME280;35061;47.664;9.166;2023-12-20T12:56:58;101851.03;;;7.39;90.96
18755;BME280;35061;47.664;9.166;2023-12-20T12:59:26;101839.29;;;7.37;90.39
18755;BME280;35061;47.664;9.166;2023-12-20T13:01:54;101836.87;;;7.36;89.96
18755;BME280;35061;47.664;9.166;2023-12-20T13:04:22;101837.85;;;7.29;89.26
18755;BME280;35061;47.664;9.166;2023-12-20T13:06:50;101848.91;;;7.27;88.66
18755;BME280;35061;47.664;9.166;2023-12-20T13:09:19;101838.48;;;7.20;88.69